createdAt,value
2018-07-14T00:00:12.042Z,0.00
2018-07-14T00:01:12.543Z,0.00
2018-07-14T00:02:13.509Z,0.00
2018-07-14T00:03:12.541Z,0.00
2018-07-14T00:04:12.548Z,0.00
2018-07-14T00:05:15.075Z,0.00
2018-07-14T00:07:44.455Z,0.00
2018-07-14T00:08:44.462Z,0.00
2018-07-14T00:09:44.462Z,0.00
2018-07-14T00:12:16.244Z,0.00
2018-07-14T00:13:16.247Z,0.00
2018-07-14T00:14:16.247Z,0.00
2018-07-14T00:15:16.750Z,0.00
2018-07-14T00:17:48.138Z,0.00
2018-07-14T00:18:48.151Z,0.00
2018-07-14T00:19:48.152Z,0.00
2018-07-14T00:20:48.646Z,0.00
2018-07-14T00:21:48.647Z,0.00
2018-07-14T00:22:48.645Z,0.00
2018-07-14T00:23:48.645Z,0.00
2018-07-14T00:26:20.401Z,0.00
2018-07-14T00:27:20.406Z,0.00
2018-07-14T00:28:20.413Z,0.00
2018-07-14T00:29:22.838Z,0.00
2018-07-14T00:31:52.769Z,0.00
2018-07-14T00:32:52.774Z,0.00
2018-07-14T00:33:52.773Z,0.00
2018-07-14T00:34:52.774Z,0.00
2018-07-14T00:35:53.281Z,0.00
2018-07-14T00:36:53.273Z,0.00
2018-07-14T00:37:53.274Z,0.00
2018-07-14T00:38:52.771Z,0.00
2018-07-14T00:39:55.205Z,0.00
2018-07-14T00:40:53.779Z,0.00
2018-07-14T00:41:53.775Z,0.00
2018-07-14T00:42:53.778Z,0.00
2018-07-14T00:43:54.277Z,0.00
2018-07-14T00:44:54.274Z,0.00
2018-07-14T00:45:54.275Z,0.00
2018-07-14T00:46:54.281Z,0.00
2018-07-14T00:48:21.773Z,0.00
2018-07-14T00:48:56.232Z,0.00
2018-07-14T00:49:54.777Z,0.00
2018-07-14T00:50:54.773Z,0.00
2018-07-14T00:53:26.515Z,0.00
2018-07-14T00:54:47.522Z,0.00
2018-07-14T00:55:26.531Z,0.00
2018-07-14T00:56:41.025Z,0.00
2018-07-14T00:57:48.026Z,0.00
2018-07-14T00:58:27.033Z,0.00
2018-07-14T00:59:27.036Z,0.00
2018-07-14T01:00:26.651Z,0.00
2018-07-14T01:01:27.525Z,0.00
2018-07-14T01:02:27.525Z,0.00
2018-07-14T01:03:26.998Z,0.00
2018-07-14T01:05:59.240Z,0.00
2018-07-14T01:07:20.248Z,0.00
2018-07-14T01:07:59.249Z,0.00
2018-07-14T01:10:31.007Z,0.00
2018-07-14T01:11:31.011Z,0.00
2018-07-14T01:12:52.010Z,0.00
2018-07-14T01:13:33.501Z,0.00
2018-07-14T01:14:31.501Z,0.00
2018-07-14T01:15:52.501Z,0.00
2018-07-14T01:16:31.503Z,0.00
2018-07-14T01:17:53.094Z,0.00
2018-07-14T01:18:33.999Z,0.00
2018-07-14T01:19:34.933Z,0.00
2018-07-14T01:20:32.001Z,0.00
2018-07-14T01:21:32.501Z,0.00
2018-07-14T01:22:32.501Z,0.00
2018-07-14T01:23:32.501Z,0.00
2018-07-14T01:24:32.503Z,0.00
2018-07-14T01:25:34.462Z,0.00
2018-07-14T01:26:33.000Z,0.00
2018-07-14T01:27:33.942Z,0.00
2018-07-14T01:28:32.448Z,0.00
2018-07-14T01:29:53.523Z,0.00
2018-07-14T01:30:54.508Z,0.00
2018-07-14T01:31:33.506Z,0.00
2018-07-14T01:32:34.499Z,0.00
2018-07-14T01:33:33.501Z,0.00
2018-07-14T01:34:55.001Z,0.00
2018-07-14T01:35:34.004Z,0.00
2018-07-14T01:36:34.001Z,0.00
2018-07-14T01:37:34.000Z,0.00
2018-07-14T01:38:33.602Z,0.00
2018-07-14T01:39:34.500Z,0.00
2018-07-14T01:40:55.501Z,0.00
2018-07-14T01:41:34.505Z,0.00
2018-07-14T01:42:57.440Z,0.00
2018-07-14T01:43:34.175Z,0.00
2018-07-14T01:44:35.433Z,0.00
2018-07-14T01:45:35.957Z,0.00
2018-07-14T01:46:56.001Z,0.00
2018-07-14T01:47:55.458Z,0.00
2018-07-14T01:48:35.501Z,0.00
2018-07-14T01:51:12.866Z,0.00
2018-07-14T01:53:59.361Z,0.00
2018-07-14T01:54:40.320Z,0.00
2018-07-14T01:55:59.407Z,0.00
2018-07-14T01:56:38.368Z,0.00
2018-07-14T01:57:59.868Z,0.00
2018-07-14T01:58:38.863Z,0.00
2018-07-14T01:59:38.868Z,0.00
2018-07-14T02:00:38.872Z,0.00
2018-07-14T02:01:54.368Z,0.00
2018-07-14T02:04:16.201Z,0.00
2018-07-14T02:05:10.759Z,0.00
2018-07-14T02:06:10.768Z,0.00
2018-07-14T02:08:44.506Z,0.00
2018-07-14T02:09:42.513Z,0.00
2018-07-14T02:11:03.523Z,0.00
2018-07-14T02:12:04.068Z,0.00
2018-07-14T02:12:43.022Z,0.00
2018-07-14T02:13:45.445Z,0.00
2018-07-14T02:14:45.513Z,0.00
2018-07-14T02:15:42.612Z,0.00
2018-07-14T02:16:43.513Z,0.00
2018-07-14T02:17:43.514Z,0.00
2018-07-14T02:18:43.518Z,0.00
2018-07-14T02:19:44.013Z,0.00
2018-07-14T02:20:44.013Z,0.00
2018-07-14T02:21:44.013Z,0.00
2018-07-14T02:22:43.485Z,0.00
2018-07-14T02:24:05.512Z,0.00
2018-07-14T02:24:44.513Z,0.00
2018-07-14T02:25:44.513Z,0.00
2018-07-14T02:26:44.513Z,0.00
2018-07-14T02:28:06.013Z,0.00
2018-07-14T02:28:45.075Z,0.00
2018-07-14T02:29:45.020Z,0.00
2018-07-14T02:30:45.014Z,0.00
2018-07-14T02:31:45.515Z,0.00
2018-07-14T02:33:06.945Z,0.00
2018-07-14T02:33:45.513Z,0.00
2018-07-14T02:34:46.968Z,0.00
2018-07-14T02:35:45.517Z,0.00
2018-07-14T02:36:45.513Z,0.00
2018-07-14T02:37:45.513Z,0.00
2018-07-14T02:43:20.106Z,0.00
2018-07-14T02:44:34.113Z,0.00
2018-07-14T02:45:20.117Z,0.00
2018-07-14T02:46:20.615Z,0.00
2018-07-14T02:47:20.615Z,0.00
2018-07-14T02:48:20.613Z,0.00
2018-07-14T02:49:20.619Z,0.00
2018-07-14T02:52:13.378Z,0.00
2018-07-14T02:52:53.377Z,0.00
2018-07-14T02:53:52.373Z,0.00
2018-07-14T02:56:45.139Z,0.00
2018-07-14T02:57:24.147Z,0.00
2018-07-14T03:01:27.334Z,0.00
2018-07-14T03:02:27.345Z,0.00
2018-07-14T03:03:26.816Z,0.00
2018-07-14T03:05:59.078Z,0.00
2018-07-14T03:07:00.521Z,0.00
2018-07-14T03:07:59.078Z,0.00
2018-07-14T03:08:58.549Z,0.00
2018-07-14T03:09:59.565Z,0.00
2018-07-14T03:10:59.565Z,0.00
2018-07-14T03:11:59.565Z,0.00
2018-07-14T03:12:59.651Z,0.00
2018-07-14T03:14:00.066Z,0.00
2018-07-14T03:15:00.089Z,0.00
2018-07-14T03:16:02.063Z,0.00
2018-07-14T03:17:00.070Z,0.00
2018-07-14T03:18:21.067Z,0.00
2018-07-14T03:19:25.641Z,0.00
2018-07-14T03:21:33.396Z,0.00
2018-07-14T03:22:31.924Z,0.00
2018-07-14T03:23:32.429Z,0.00
2018-07-14T03:24:54.359Z,5.63
2018-07-14T03:27:03.217Z,5.63
2018-07-14T03:28:03.970Z,5.63
2018-07-14T03:29:04.949Z,5.63
2018-07-14T03:30:04.460Z,5.63
2018-07-14T03:31:05.449Z,5.63
2018-07-14T03:32:04.451Z,5.63
2018-07-14T03:33:04.455Z,5.63
2018-07-14T03:34:25.951Z,5.63
2018-07-14T03:35:04.952Z,5.63
2018-07-14T03:36:06.383Z,5.63
2018-07-14T03:37:04.960Z,11.25
2018-07-14T03:39:37.231Z,11.25
2018-07-14T03:40:37.245Z,11.25
2018-07-14T03:41:38.229Z,11.25
2018-07-14T03:44:08.982Z,11.25
2018-07-14T03:45:08.988Z,11.25
2018-07-14T03:46:08.989Z,16.88
2018-07-14T03:47:09.495Z,16.88
2018-07-14T03:48:09.489Z,16.88
2018-07-14T03:49:09.492Z,16.88
2018-07-14T03:50:09.489Z,16.88
2018-07-14T03:51:09.988Z,16.88
2018-07-14T03:52:10.986Z,16.88
2018-07-14T03:53:30.988Z,16.88
2018-07-14T03:54:30.992Z,16.88
2018-07-14T03:55:31.488Z,22.50
2018-07-14T03:57:42.360Z,22.50
2018-07-14T03:58:42.368Z,22.50
2018-07-14T04:00:03.370Z,28.13
2018-07-14T04:00:42.366Z,28.13
2018-07-14T04:02:09.867Z,28.13
2018-07-14T04:04:14.306Z,33.75
2018-07-14T04:05:14.277Z,33.75
2018-07-14T04:09:19.297Z,39.38
2018-07-14T04:11:49.235Z,39.38
2018-07-14T04:12:49.243Z,39.38
2018-07-14T04:13:49.245Z,39.38
2018-07-14T04:14:51.180Z,39.38
2018-07-14T04:16:10.739Z,39.38
2018-07-14T04:16:49.746Z,39.38
2018-07-14T04:17:49.741Z,39.38
2018-07-14T04:18:50.240Z,39.38
2018-07-14T04:19:50.240Z,45.00
2018-07-14T04:20:50.240Z,45.00
2018-07-14T04:21:50.236Z,45.00
2018-07-14T04:23:11.748Z,45.00
2018-07-14T04:23:50.740Z,45.00
2018-07-14T04:24:52.196Z,45.00
2018-07-14T04:25:50.739Z,45.00
2018-07-14T04:28:22.490Z,50.63
2018-07-14T04:29:22.498Z,50.63
2018-07-14T04:30:22.512Z,50.63
2018-07-14T04:31:22.994Z,50.63
2018-07-14T04:32:22.997Z,50.63
2018-07-14T04:33:22.998Z,50.63
2018-07-14T04:34:22.999Z,56.25
2018-07-14T04:35:22.594Z,56.25
2018-07-14T04:36:44.497Z,56.25
2018-07-14T04:37:23.497Z,56.25
2018-07-14T04:38:23.496Z,56.25
2018-07-14T04:39:23.116Z,56.25
2018-07-14T04:40:24.006Z,56.25
2018-07-14T04:41:23.997Z,56.25
2018-07-14T04:42:24.037Z,56.25
2018-07-14T04:43:24.500Z,56.25
2018-07-14T04:44:24.497Z,61.88
2018-07-14T04:45:24.498Z,61.88
2018-07-14T04:46:24.498Z,61.88
2018-07-14T04:47:24.100Z,61.88
2018-07-14T04:48:24.997Z,61.88
2018-07-14T04:49:25.057Z,61.88
2018-07-14T04:50:45.996Z,61.88
2018-07-14T04:51:46.963Z,61.88
2018-07-14T04:53:56.822Z,67.50
2018-07-14T04:54:56.832Z,67.50
2018-07-14T04:59:21.016Z,67.50
2018-07-14T05:01:31.522Z,67.50
2018-07-14T05:02:30.871Z,67.50
2018-07-14T05:03:31.519Z,67.50
2018-07-14T05:04:32.019Z,67.50
2018-07-14T05:05:53.020Z,67.50
2018-07-14T05:06:32.124Z,78.75
2018-07-14T05:07:53.526Z,73.13
2018-07-14T05:08:32.520Z,73.13
2018-07-14T05:09:32.519Z,73.13
2018-07-14T05:10:32.520Z,73.13
2018-07-14T05:11:32.525Z,73.13
2018-07-14T05:12:33.020Z,73.13
2018-07-14T05:13:54.020Z,73.13
2018-07-14T05:14:33.041Z,73.13
2018-07-14T05:15:36.451Z,73.13
2018-07-14T05:16:33.517Z,78.75
2018-07-14T05:19:04.909Z,78.75
2018-07-14T05:20:04.917Z,78.75
2018-07-14T05:21:04.916Z,78.75
2018-07-14T05:22:05.416Z,78.75
2018-07-14T05:23:26.416Z,78.75
2018-07-14T05:24:05.413Z,78.75
2018-07-14T05:25:05.420Z,78.75
2018-07-14T05:29:08.596Z,78.75
2018-07-14T05:30:08.608Z,84.38
2018-07-14T05:31:10.044Z,84.38
2018-07-14T05:34:01.304Z,84.38
2018-07-14T05:34:40.314Z,84.38
2018-07-14T05:35:40.314Z,84.38
2018-07-14T05:36:46.812Z,84.38
2018-07-14T05:38:01.013Z,84.38
2018-07-14T05:38:46.814Z,84.38
2018-07-14T05:40:01.812Z,84.38
2018-07-14T05:41:01.817Z,84.38
2018-07-14T05:43:12.574Z,84.38
2018-07-14T05:44:12.571Z,84.38
2018-07-14T05:45:14.546Z,84.38
2018-07-14T05:46:34.070Z,84.38
2018-07-14T05:47:13.099Z,84.38
2018-07-14T05:48:13.070Z,84.38
2018-07-14T05:49:34.071Z,84.38
2018-07-14T05:50:15.040Z,84.38
2018-07-14T05:52:45.856Z,84.38
2018-07-14T05:53:44.924Z,84.38
2018-07-14T05:54:44.924Z,84.38
2018-07-14T05:56:06.425Z,84.38
2018-07-14T05:58:41.277Z,84.38
2018-07-14T05:59:16.812Z,90.00
2018-07-14T06:00:16.816Z,90.00
2018-07-14T06:01:16.462Z,90.00
2018-07-14T06:04:09.707Z,90.00
2018-07-14T06:04:48.713Z,90.00
2018-07-14T06:05:50.151Z,90.00
2018-07-14T06:07:03.213Z,90.00
2018-07-14T06:08:10.215Z,90.00
2018-07-14T06:08:51.648Z,90.00
2018-07-14T06:10:10.214Z,90.00
2018-07-14T06:11:12.174Z,90.00
2018-07-14T06:11:49.718Z,90.00
2018-07-14T06:12:51.737Z,95.63
2018-07-14T06:13:49.715Z,95.63
2018-07-14T06:15:10.294Z,95.63
2018-07-14T06:17:21.644Z,95.63
2018-07-14T06:18:42.551Z,95.63
2018-07-14T06:19:23.526Z,95.63
2018-07-14T06:21:53.278Z,101.25
2018-07-14T06:22:53.298Z,101.25
2018-07-14T06:26:56.381Z,101.25
2018-07-14T06:27:57.821Z,101.25
2018-07-14T06:28:56.388Z,101.25
2018-07-14T06:29:56.888Z,101.25
2018-07-14T06:30:56.889Z,106.88
2018-07-14T06:31:56.912Z,106.88
2018-07-14T06:32:56.895Z,112.50
2018-07-14T06:33:57.393Z,112.50
2018-07-14T06:35:18.392Z,118.13
2018-07-14T06:35:57.394Z,118.13
2018-07-14T06:36:57.399Z,123.75
2018-07-14T06:38:19.963Z,123.75
2018-07-14T06:38:57.889Z,118.13
2018-07-14T06:39:57.890Z,112.50
2018-07-14T06:40:57.889Z,112.50
2018-07-14T06:42:20.321Z,112.50
2018-07-14T06:42:58.389Z,112.50
2018-07-14T06:44:20.821Z,112.50
2018-07-14T06:44:58.389Z,106.88
2018-07-14T06:46:19.890Z,106.88
2018-07-14T06:46:58.889Z,101.25
2018-07-14T06:47:58.889Z,101.25
2018-07-14T06:49:19.891Z,106.88
2018-07-14T06:50:01.393Z,112.50
2018-07-14T06:50:59.384Z,112.50
2018-07-14T06:53:51.916Z,112.50
2018-07-14T06:54:30.267Z,112.50
2018-07-14T06:55:30.925Z,106.88
2018-07-14T06:56:52.424Z,112.50
2018-07-14T06:57:31.424Z,123.75
2018-07-14T06:58:31.423Z,118.13
2018-07-14T06:59:31.424Z,118.13
2018-07-14T07:00:52.007Z,112.50
2018-07-14T07:01:31.924Z,123.75
2018-07-14T07:02:52.924Z,118.13
2018-07-14T07:03:31.929Z,123.75
2018-07-14T07:04:32.425Z,123.75
2018-07-14T07:05:53.423Z,123.75
2018-07-14T07:06:32.424Z,129.38
2018-07-14T07:07:33.856Z,129.38
2018-07-14T07:08:32.923Z,129.38
2018-07-14T07:09:32.924Z,129.38
2018-07-14T07:10:53.941Z,135.00
2018-07-14T07:11:32.924Z,135.00
2018-07-14T07:12:33.424Z,135.00
2018-07-14T07:13:32.679Z,135.00
2018-07-14T07:14:33.460Z,140.63
2018-07-14T07:15:54.425Z,140.63
2018-07-14T07:16:33.948Z,140.63
2018-07-14T07:17:54.930Z,140.63
2018-07-14T07:18:33.291Z,140.63
2018-07-14T07:19:54.393Z,140.63
2018-07-14T07:20:34.424Z,146.25
2018-07-14T07:21:56.857Z,146.25
2018-07-14T07:22:34.424Z,151.88
2018-07-14T07:23:33.777Z,151.88
2018-07-14T07:24:34.434Z,151.88
2018-07-14T07:25:34.964Z,157.50
2018-07-14T07:26:55.925Z,157.50
2018-07-14T07:27:34.931Z,157.50
2018-07-14T07:28:34.925Z,157.50
2018-07-14T07:29:56.425Z,168.75
2018-07-14T07:30:35.501Z,163.13
2018-07-14T07:31:35.428Z,163.13
2018-07-14T07:32:37.381Z,168.75
2018-07-14T07:33:35.428Z,168.75
2018-07-14T07:34:56.950Z,174.38
2018-07-14T07:35:58.865Z,174.38
2018-07-14T07:36:56.946Z,174.38
2018-07-14T07:37:56.928Z,174.38
2018-07-14T07:38:56.925Z,180.00
2018-07-14T07:39:37.872Z,180.00
2018-07-14T07:40:57.425Z,185.63
2018-07-14T07:41:36.425Z,185.63
2018-07-14T07:42:36.426Z,191.25
2018-07-14T07:43:36.425Z,191.25
2018-07-14T07:44:57.925Z,191.25
2018-07-14T07:45:38.926Z,191.25
2018-07-14T07:46:57.925Z,196.88
2018-07-14T07:47:57.925Z,196.88
2018-07-14T07:48:37.433Z,202.50
2018-07-14T07:51:23.320Z,213.75
2018-07-14T07:52:09.327Z,213.75
2018-07-14T07:53:09.327Z,219.38
2018-07-14T07:54:30.828Z,219.38
2018-07-14T07:55:30.830Z,219.38
2018-07-14T07:56:09.830Z,225.00
2018-07-14T07:57:09.828Z,230.63
2018-07-14T07:58:10.327Z,230.63
2018-07-14T08:01:04.715Z,230.63
2018-07-14T08:01:43.723Z,230.63
2018-07-14T08:02:43.723Z,230.63
2018-07-14T08:03:43.722Z,230.63
2018-07-14T08:04:44.222Z,230.63
2018-07-14T08:07:36.601Z,230.63
2018-07-14T08:08:15.604Z,213.75
2018-07-14T08:09:17.039Z,230.63
2018-07-14T08:10:16.107Z,230.63
2018-07-14T08:11:17.584Z,230.63
2018-07-14T08:12:16.112Z,230.63
2018-07-14T08:13:16.108Z,236.25
2018-07-14T08:14:37.608Z,241.88
2018-07-14T08:15:16.608Z,241.88
2018-07-14T08:16:16.608Z,241.88
2018-07-14T08:17:16.608Z,241.88
2018-07-14T08:19:48.361Z,241.88
2018-07-14T08:21:15.370Z,225.00
2018-07-14T08:21:48.369Z,230.63
2018-07-14T08:25:51.581Z,225.00
2018-07-14T08:26:50.930Z,236.25
2018-07-14T08:27:51.583Z,236.25
2018-07-14T08:28:52.085Z,236.25
2018-07-14T08:29:52.080Z,236.25
2018-07-14T08:30:52.084Z,236.25
2018-07-14T08:31:52.084Z,241.88
2018-07-14T08:34:23.839Z,247.50
2018-07-14T08:35:23.196Z,241.88
2018-07-14T08:36:23.852Z,241.88
2018-07-14T08:37:24.345Z,241.88
2018-07-14T08:38:24.347Z,247.50
2018-07-14T08:40:24.346Z,247.50
2018-07-14T08:41:25.792Z,247.50
2018-07-14T08:42:24.852Z,247.50
2018-07-14T08:43:24.847Z,247.50
2018-07-14T08:44:24.848Z,247.50
2018-07-14T08:45:31.347Z,247.50
2018-07-14T08:46:25.356Z,247.50
2018-07-14T08:47:25.347Z,247.50
2018-07-14T08:48:25.349Z,247.50
2018-07-14T08:49:25.848Z,247.50
2018-07-14T08:50:25.909Z,247.50
2018-07-14T08:51:25.872Z,247.50
2018-07-14T08:52:25.846Z,253.13
2018-07-14T08:53:28.348Z,253.13
2018-07-14T08:55:59.192Z,253.13
2018-07-14T08:56:57.760Z,253.13
2018-07-14T08:57:57.760Z,253.13
2018-07-14T08:58:58.259Z,253.13
2018-07-14T08:59:58.257Z,253.13
2018-07-14T09:02:29.765Z,258.75
2018-07-14T09:03:29.128Z,253.13
2018-07-14T09:06:22.416Z,258.75
2018-07-14T09:07:03.389Z,258.75
2018-07-14T09:08:01.394Z,258.75
2018-07-14T09:10:33.171Z,264.38
2018-07-14T09:13:28.369Z,264.38
2018-07-14T09:14:26.384Z,264.38
2018-07-14T09:15:05.377Z,264.38
2018-07-14T09:16:05.374Z,264.38
2018-07-14T09:18:39.170Z,264.38
2018-07-14T09:19:38.637Z,275.63
2018-07-14T09:20:58.176Z,264.38
2018-07-14T09:21:58.684Z,270.00
2018-07-14T09:22:58.677Z,270.00
2018-07-14T09:23:37.677Z,270.00
2018-07-14T09:24:58.677Z,270.00
2018-07-14T09:25:58.270Z,275.63
2018-07-14T09:26:59.172Z,281.25
2018-07-14T09:27:38.181Z,275.63
2018-07-14T09:28:38.186Z,275.63
2018-07-14T09:29:38.678Z,275.63
2018-07-14T09:30:37.908Z,275.63
2018-07-14T09:31:38.697Z,275.63
2018-07-14T09:32:38.734Z,281.25
2018-07-14T09:33:39.177Z,281.25
2018-07-14T09:34:38.439Z,281.25
2018-07-14T09:36:01.640Z,281.25
2018-07-14T09:36:39.179Z,281.25
2018-07-14T09:37:39.686Z,286.88
2018-07-14T09:38:39.678Z,286.88
2018-07-14T09:39:39.678Z,286.88
2018-07-14T09:40:39.679Z,286.88
2018-07-14T09:41:40.191Z,292.50
2018-07-14T09:44:11.585Z,292.50
2018-07-14T09:45:11.591Z,286.88
2018-07-14T09:46:11.078Z,286.88
2018-07-14T09:48:43.327Z,292.50
2018-07-14T09:49:43.337Z,292.50
2018-07-14T09:52:15.011Z,298.13
2018-07-14T09:53:14.369Z,303.75
2018-07-14T09:54:15.023Z,309.38
2018-07-14T09:55:15.578Z,315.00
2018-07-14T09:57:46.924Z,320.63
2018-07-14T09:58:46.932Z,320.63
2018-07-14T10:01:41.576Z,326.25
2018-07-14T10:02:17.932Z,337.50
2018-07-14T10:03:32.667Z,354.38
2018-07-14T10:06:04.429Z,376.88
2018-07-14T10:06:51.792Z,371.25
2018-07-14T10:07:56.364Z,371.25
2018-07-14T10:10:43.134Z,405.00
2018-07-14T10:11:44.139Z,393.75
2018-07-14T10:12:43.144Z,421.88
2018-07-14T10:13:22.640Z,444.38
2018-07-14T10:14:22.643Z,455.63
2018-07-14T10:15:22.664Z,461.25
2018-07-14T10:16:43.655Z,455.63
2018-07-14T10:17:22.348Z,461.25
2018-07-14T10:18:44.141Z,348.75
2018-07-14T10:19:45.075Z,472.50
2018-07-14T10:20:23.141Z,495.00
2018-07-14T10:21:23.143Z,461.25
2018-07-14T10:22:25.647Z,472.50
2018-07-14T10:23:26.574Z,421.88
2018-07-14T10:24:23.639Z,354.38
2018-07-14T10:25:23.774Z,399.38
2018-07-14T10:26:25.111Z,331.88
2018-07-14T10:27:23.350Z,337.50
2018-07-14T10:28:24.178Z,371.25
2018-07-14T10:29:24.153Z,388.13
2018-07-14T10:30:24.645Z,376.88
2018-07-14T10:31:24.642Z,382.50
2018-07-14T10:32:24.649Z,365.63
2018-07-14T10:33:24.643Z,354.38
2018-07-14T10:34:39.146Z,461.25
2018-07-14T10:35:25.147Z,354.38
2018-07-14T10:36:25.156Z,337.50
2018-07-14T10:37:25.143Z,337.50
2018-07-14T10:38:27.123Z,337.50
2018-07-14T10:39:46.645Z,331.88
2018-07-14T10:40:25.643Z,320.63
2018-07-14T10:41:25.644Z,320.63
2018-07-14T10:42:46.233Z,320.63
2018-07-14T10:43:26.144Z,371.25
2018-07-14T10:44:26.148Z,438.75
2018-07-14T10:45:32.645Z,427.50
2018-07-14T10:47:57.917Z,399.38
2018-07-14T10:48:57.921Z,393.75
2018-07-14T10:49:57.919Z,405.00
2018-07-14T10:51:12.426Z,416.25
2018-07-14T10:52:04.420Z,405.00
2018-07-14T10:52:58.428Z,393.75
2018-07-14T10:55:30.073Z,399.38
2018-07-14T10:58:00.955Z,275.63
2018-07-14T10:59:01.636Z,303.75
2018-07-14T11:02:01.719Z,433.13
2018-07-14T11:02:34.739Z,438.75
2018-07-14T11:03:32.725Z,444.38
2018-07-14T11:04:33.840Z,461.25
2018-07-14T11:05:54.782Z,371.25
2018-07-14T11:06:33.780Z,399.38
2018-07-14T11:07:33.780Z,466.88
2018-07-14T11:08:33.782Z,466.88
2018-07-14T11:09:34.283Z,483.75
2018-07-14T11:10:34.281Z,427.50
2018-07-14T11:11:34.283Z,478.13
2018-07-14T11:12:34.285Z,472.50
2018-07-14T11:15:06.060Z,489.38
2018-07-14T11:16:06.068Z,466.88
2018-07-14T11:17:06.084Z,455.63
2018-07-14T11:18:06.575Z,455.63
2018-07-14T11:19:06.569Z,478.13
2018-07-14T11:20:06.570Z,495.00
2018-07-14T11:21:06.566Z,506.25
2018-07-14T11:22:28.068Z,517.50
2018-07-14T11:23:28.068Z,500.63
2018-07-14T11:24:07.105Z,495.00
2018-07-14T11:28:34.131Z,489.38
2018-07-14T11:29:10.198Z,489.38
2018-07-14T11:30:11.705Z,483.75
2018-07-14T11:33:03.919Z,517.50
2018-07-14T11:33:41.952Z,523.13
2018-07-14T11:35:02.956Z,523.13
2018-07-14T11:36:04.450Z,478.13
2018-07-14T11:37:03.452Z,466.88
2018-07-14T11:39:13.789Z,478.13
2018-07-14T11:40:14.492Z,478.13
2018-07-14T11:41:14.491Z,506.25
2018-07-14T11:42:35.992Z,478.13
2018-07-14T11:43:14.992Z,371.25
2018-07-14T11:44:15.048Z,365.63
2018-07-14T11:45:14.435Z,382.50
2018-07-14T11:46:14.540Z,405.00
2018-07-14T11:48:46.821Z,337.50
2018-07-14T11:49:46.825Z,320.63
2018-07-14T11:51:07.823Z,320.63
2018-07-14T11:51:47.287Z,331.88
2018-07-14T11:52:47.322Z,450.00
2018-07-14T11:53:47.322Z,506.25
2018-07-14T11:54:47.322Z,433.13
2018-07-14T11:55:47.830Z,399.38
2018-07-14T11:56:47.822Z,410.63
2018-07-14T11:57:47.824Z,506.25
2018-07-14T11:58:47.823Z,410.63
2018-07-14T11:59:48.323Z,433.13
2018-07-14T12:00:49.754Z,433.13
2018-07-14T12:01:50.325Z,568.13
2018-07-14T12:04:19.957Z,450.00
2018-07-14T12:05:21.968Z,551.25
2018-07-14T12:06:20.964Z,534.38
2018-07-14T12:07:41.471Z,517.50
2018-07-14T12:09:52.791Z,365.63
2018-07-14T12:10:51.859Z,343.13
2018-07-14T12:11:51.337Z,303.75
2018-07-14T12:13:15.366Z,292.50
2018-07-14T12:15:23.032Z,258.75
2018-07-14T12:16:44.777Z,270.00
2018-07-14T12:17:23.773Z,270.00
2018-07-14T12:18:45.289Z,270.00
2018-07-14T12:19:23.500Z,286.88
2018-07-14T12:20:26.274Z,309.38
2018-07-14T12:21:24.270Z,315.00
2018-07-14T12:22:24.845Z,292.50
2018-07-14T12:24:56.197Z,281.25
2018-07-14T12:26:16.536Z,241.88
2018-07-14T12:26:56.202Z,236.25
2018-07-14T12:27:57.637Z,230.63
2018-07-14T12:28:56.704Z,225.00
2018-07-14T12:29:56.705Z,219.38
2018-07-14T12:30:56.705Z,219.38
2018-07-14T12:31:56.312Z,219.38
2018-07-14T12:32:57.207Z,219.38
2018-07-14T12:33:57.204Z,213.75
2018-07-14T12:35:18.223Z,213.75
2018-07-14T12:35:57.713Z,208.13
2018-07-14T12:36:57.705Z,202.50
2018-07-14T12:37:57.705Z,202.50
2018-07-14T12:38:57.705Z,208.13
2018-07-14T12:43:22.535Z,202.50
2018-07-14T12:44:01.534Z,202.50
2018-07-14T12:45:03.535Z,202.50
2018-07-14T12:46:03.013Z,196.88
2018-07-14T12:47:02.033Z,191.25
2018-07-14T12:48:02.036Z,185.63
2018-07-14T12:49:08.035Z,191.25
2018-07-14T12:50:23.535Z,196.88
2018-07-14T12:51:23.535Z,219.38
2018-07-14T12:52:04.535Z,230.63
2018-07-14T12:53:02.535Z,230.63
2018-07-14T12:55:36.779Z,225.00
2018-07-14T12:58:05.813Z,219.38
2018-07-14T12:59:05.819Z,219.38
2018-07-14T13:00:07.920Z,225.00
2018-07-14T13:01:07.765Z,241.88
2018-07-14T13:03:37.682Z,354.38
2018-07-14T13:04:37.702Z,438.75
2018-07-14T13:05:37.704Z,585.00
2018-07-14T13:06:39.726Z,579.38
2018-07-14T13:07:38.196Z,562.50
2018-07-14T13:08:38.192Z,534.38
2018-07-14T13:09:59.189Z,523.13
2018-07-14T13:10:37.797Z,309.38
2018-07-14T13:11:38.691Z,264.38
2018-07-14T13:12:38.698Z,247.50
2018-07-14T13:13:38.723Z,230.63
2018-07-14T13:19:34.356Z,236.25
2018-07-14T13:20:14.797Z,253.13
2018-07-14T13:21:34.363Z,258.75
2018-07-14T13:22:13.366Z,275.63
2018-07-14T13:23:13.929Z,292.50
2018-07-14T13:24:35.862Z,320.63
2018-07-14T13:25:13.873Z,365.63
2018-07-14T13:26:13.863Z,551.25
2018-07-14T13:27:14.815Z,613.13
2018-07-14T13:28:14.395Z,635.63
2018-07-14T13:29:14.364Z,658.13
2018-07-14T13:30:13.604Z,630.00
2018-07-14T13:31:14.365Z,601.88
2018-07-14T13:32:36.296Z,596.25
2018-07-14T13:33:14.867Z,590.63
2018-07-14T13:34:35.874Z,579.38
2018-07-14T13:35:14.865Z,562.50
2018-07-14T13:36:14.922Z,534.38
2018-07-14T13:37:14.469Z,540.00
2018-07-14T13:38:36.365Z,511.88
2018-07-14T13:39:15.372Z,500.63
2018-07-14T13:40:36.368Z,219.38
2018-07-14T13:41:15.868Z,236.25
2018-07-14T13:42:15.865Z,551.25
2018-07-14T13:43:15.866Z,585.00
2018-07-14T13:44:15.865Z,618.75
2018-07-14T13:45:15.506Z,663.75
2018-07-14T13:46:16.365Z,669.38
2018-07-14T13:48:47.891Z,568.13
2018-07-14T13:49:47.902Z,511.88
2018-07-14T13:51:08.901Z,556.88
2018-07-14T13:52:09.397Z,320.63
2018-07-14T13:54:19.787Z,303.75
2018-07-14T13:55:21.256Z,281.25
2018-07-14T13:56:19.795Z,292.50
2018-07-14T13:58:51.562Z,320.63
2018-07-14T14:00:12.572Z,348.75
2018-07-14T14:00:51.569Z,399.38
2018-07-14T14:01:54.070Z,427.50
2018-07-14T14:03:13.072Z,433.13
2018-07-14T14:03:52.071Z,444.38
2018-07-14T14:04:52.072Z,483.75
2018-07-14T14:05:52.573Z,388.13
2018-07-14T14:06:53.543Z,348.75
2018-07-14T14:08:13.570Z,309.38
2018-07-14T14:08:53.567Z,298.13
2018-07-14T14:09:53.070Z,286.88
2018-07-14T14:10:53.073Z,303.75
2018-07-14T14:11:53.076Z,388.13
2018-07-14T14:15:56.525Z,253.13
2018-07-14T14:16:56.526Z,247.50
2018-07-14T14:17:56.537Z,264.38
2018-07-14T14:20:57.761Z,264.38
2018-07-14T14:21:49.329Z,264.38
2018-07-14T14:22:49.331Z,253.13
2018-07-14T14:23:28.830Z,253.13
2018-07-14T14:26:27.259Z,270.00
2018-07-14T14:27:00.254Z,264.38
2018-07-14T14:28:21.253Z,247.50
2018-07-14T14:29:14.755Z,236.25
2018-07-14T14:30:21.755Z,225.00
2018-07-14T14:34:25.015Z,213.75
2018-07-14T14:35:04.029Z,230.63
2018-07-14T14:36:04.022Z,281.25
2018-07-14T14:37:03.635Z,618.75
2018-07-14T14:38:25.521Z,658.13
2018-07-14T14:40:38.028Z,714.38
2018-07-14T14:41:36.042Z,731.25
2018-07-14T14:42:36.048Z,736.88
2018-07-14T14:43:36.553Z,731.25
2018-07-14T14:44:57.556Z,708.75
2018-07-14T14:45:38.541Z,680.63
2018-07-14T14:46:58.540Z,652.50
2018-07-14T14:47:58.047Z,652.50
2018-07-14T14:48:37.101Z,669.38
2018-07-14T14:49:57.429Z,663.75
2018-07-14T14:50:37.042Z,675.00
2018-07-14T14:51:58.542Z,675.00
2018-07-14T14:52:37.538Z,585.00
2018-07-14T14:53:39.551Z,461.25
2018-07-14T14:54:37.547Z,450.00
2018-07-14T14:55:38.046Z,489.38
2018-07-14T14:56:38.043Z,618.75
2018-07-14T14:57:38.048Z,393.75
2018-07-14T14:58:38.057Z,298.13
2018-07-14T15:04:12.764Z,196.88
2018-07-14T15:05:12.771Z,191.25
2018-07-14T15:06:12.772Z,185.63
2018-07-14T15:07:34.272Z,185.63
2018-07-14T15:08:34.275Z,191.25
2018-07-14T15:09:33.609Z,191.25
2018-07-14T15:10:13.272Z,196.88
2018-07-14T15:11:13.774Z,191.25
2018-07-14T15:12:13.781Z,191.25
2018-07-14T15:13:14.708Z,191.25
2018-07-14T15:17:16.953Z,241.88
2018-07-14T15:18:16.960Z,275.63
2018-07-14T15:19:24.457Z,320.63
2018-07-14T15:20:17.458Z,466.88
2018-07-14T15:21:17.465Z,382.50
2018-07-14T15:22:17.462Z,579.38
2018-07-14T15:23:17.499Z,590.63
2018-07-14T15:24:17.964Z,585.00
2018-07-14T15:25:17.972Z,461.25